createdAt,value
2022-10-20T00:00:48.964Z,17.50
2022-10-20T00:02:50.743Z,17.50
2022-10-20T00:04:52.451Z,17.50
2022-10-20T00:06:54.150Z,17.50
2022-10-20T00:08:56.529Z,17.50
2022-10-20T00:10:58.205Z,17.50
2022-10-20T00:12:59.984Z,17.50
2022-10-20T00:15:01.644Z,17.50
2022-10-20T00:17:05.423Z,17.50
2022-10-20T00:19:07.351Z,17.40
2022-10-20T00:21:10.593Z,17.40
2022-10-20T00:23:12.303Z,17.40
2022-10-20T00:25:13.897Z,17.40
2022-10-20T00:27:15.509Z,17.40
2022-10-20T00:31:20.779Z,17.40
2022-10-20T00:33:22.703Z,17.40
2022-10-20T00:35:24.370Z,17.30
2022-10-20T00:37:26.052Z,17.30
2022-10-20T00:39:27.706Z,17.40
2022-10-20T00:41:29.799Z,17.30
2022-10-20T00:43:49.823Z,17.30
2022-10-20T00:45:53.947Z,17.30
2022-10-20T00:47:56.915Z,17.30
2022-10-20T00:50:01.928Z,17.30
2022-10-20T00:52:04.056Z,17.30
2022-10-20T00:54:08.556Z,17.30
2022-10-20T00:56:10.816Z,17.30
2022-10-20T00:58:12.519Z,17.20
2022-10-20T01:00:14.638Z,17.30
2022-10-20T01:02:16.395Z,17.20
2022-10-20T01:04:18.137Z,17.20
2022-10-20T01:06:20.627Z,17.20
2022-10-20T01:08:22.303Z,17.20
2022-10-20T01:10:26.043Z,17.20
2022-10-20T01:12:37.147Z,17.10
2022-10-20T01:14:38.777Z,17.10
2022-10-20T01:16:53.554Z,17.10
2022-10-20T01:19:13.721Z,17.10
2022-10-20T01:21:27.698Z,17.10
2022-10-20T01:23:52.669Z,17.10
2022-10-20T01:26:05.821Z,17.10
2022-10-20T01:28:12.281Z,17.10
2022-10-20T01:30:16.025Z,17.10
2022-10-20T01:32:22.140Z,17.10
2022-10-20T01:34:31.859Z,17.10
2022-10-20T01:36:33.465Z,17.10
2022-10-20T01:38:43.965Z,17.10
2022-10-20T01:41:02.760Z,17.10
2022-10-20T01:43:05.856Z,17.00
2022-10-20T01:45:07.869Z,17.00
2022-10-20T01:47:11.610Z,17.00
2022-10-20T01:49:14.334Z,17.00
2022-10-20T01:51:16.002Z,17.00
2022-10-20T01:53:17.633Z,17.00
2022-10-20T01:55:19.288Z,17.00
2022-10-20T01:57:33.202Z,17.00
2022-10-20T01:59:37.890Z,16.90
2022-10-20T02:01:50.800Z,17.00
2022-10-20T02:04:00.026Z,17.00
2022-10-20T02:06:20.077Z,16.90
2022-10-20T02:08:40.631Z,17.00
2022-10-20T02:10:49.862Z,16.90
2022-10-20T02:12:53.913Z,16.90
2022-10-20T02:14:56.295Z,16.90
2022-10-20T02:17:00.688Z,16.90
2022-10-20T02:19:03.661Z,16.90
2022-10-20T02:21:06.669Z,16.90
2022-10-20T02:23:08.586Z,16.90
2022-10-20T02:25:11.679Z,16.90
2022-10-20T02:27:15.721Z,16.90
2022-10-20T02:29:20.022Z,16.90
2022-10-20T02:31:22.212Z,16.90
2022-10-20T02:33:23.831Z,16.90
2022-10-20T02:35:32.020Z,16.90
2022-10-20T02:37:34.000Z,16.90
2022-10-20T02:39:35.951Z,16.90
2022-10-20T02:41:37.659Z,16.90
2022-10-20T02:43:39.293Z,16.90
2022-10-20T02:45:40.923Z,16.90
2022-10-20T02:47:42.691Z,16.90
2022-10-20T02:49:44.326Z,17.00
2022-10-20T02:51:45.982Z,17.00
2022-10-20T02:53:47.647Z,17.00
2022-10-20T02:55:49.322Z,17.10
2022-10-20T02:57:53.800Z,17.00
2022-10-20T02:59:55.510Z,17.00
2022-10-20T03:01:57.233Z,17.00
2022-10-20T03:03:59.894Z,17.10
2022-10-20T03:06:08.973Z,17.00
2022-10-20T03:08:11.101Z,17.00
2022-10-20T03:10:12.717Z,17.10
2022-10-20T03:12:14.347Z,17.00
2022-10-20T03:14:15.963Z,17.00
2022-10-20T03:16:17.591Z,17.00
2022-10-20T03:18:19.223Z,17.00
2022-10-20T03:20:20.915Z,17.10
2022-10-20T03:22:22.655Z,17.00
2022-10-20T03:24:24.319Z,17.10
2022-10-20T03:26:25.917Z,17.00
2022-10-20T03:28:27.574Z,17.00
2022-10-20T03:30:29.216Z,17.10
2022-10-20T03:32:30.837Z,17.00
2022-10-20T03:34:32.485Z,17.10
2022-10-20T03:36:34.153Z,17.00
2022-10-20T03:38:35.768Z,17.00
2022-10-20T03:40:37.385Z,17.00
2022-10-20T03:42:39.191Z,17.00
2022-10-20T03:44:40.960Z,17.00
2022-10-20T03:46:42.578Z,17.00
2022-10-20T03:48:44.222Z,17.00
2022-10-20T03:50:45.843Z,17.00
2022-10-20T03:52:48.376Z,17.00
2022-10-20T03:54:50.030Z,17.00
2022-10-20T03:56:51.649Z,17.00
2022-10-20T03:58:53.331Z,17.00
2022-10-20T04:00:55.091Z,17.00
2022-10-20T04:02:56.707Z,17.00
2022-10-20T04:04:58.411Z,17.00
2022-10-20T04:07:00.024Z,17.00
2022-10-20T04:09:01.760Z,17.00
2022-10-20T04:11:03.438Z,16.90
2022-10-20T04:13:05.108Z,17.00
2022-10-20T04:15:07.345Z,16.90
2022-10-20T04:17:08.960Z,16.90
2022-10-20T04:19:10.566Z,17.00
2022-10-20T04:21:12.273Z,16.90
2022-10-20T04:23:14.175Z,17.00
2022-10-20T04:25:15.803Z,17.00
2022-10-20T04:27:17.423Z,17.00
2022-10-20T04:29:19.057Z,17.00
2022-10-20T04:31:20.678Z,17.00
2022-10-20T04:33:22.352Z,17.00
2022-10-20T04:35:23.987Z,16.90
2022-10-20T04:37:25.647Z,16.90
2022-10-20T04:39:27.276Z,16.90
2022-10-20T04:41:28.919Z,16.90
2022-10-20T04:43:31.044Z,16.90
2022-10-20T04:45:32.729Z,16.90
2022-10-20T04:47:34.811Z,16.90
2022-10-20T04:49:36.867Z,16.90
2022-10-20T04:51:41.405Z,16.90
2022-10-20T04:53:43.036Z,16.90
2022-10-20T04:55:53.406Z,16.90
2022-10-20T04:57:55.042Z,16.90
2022-10-20T04:59:56.658Z,16.90
2022-10-20T05:01:58.356Z,16.90
2022-10-20T05:04:00.048Z,16.80
2022-10-20T05:06:18.996Z,16.90
2022-10-20T05:08:20.601Z,16.80
2022-10-20T05:10:22.316Z,16.80
2022-10-20T05:12:24.011Z,16.80
2022-10-20T05:14:25.876Z,16.80
2022-10-20T05:16:27.573Z,16.80
2022-10-20T05:18:32.092Z,16.80
2022-10-20T05:20:40.979Z,16.80
2022-10-20T05:22:47.704Z,16.80
2022-10-20T05:24:49.316Z,16.80
2022-10-20T05:26:53.412Z,16.80
2022-10-20T05:28:55.069Z,16.80
2022-10-20T05:30:59.248Z,16.80
2022-10-20T05:33:03.354Z,16.90
2022-10-20T05:35:05.206Z,16.80
2022-10-20T05:37:06.800Z,16.90
2022-10-20T05:39:09.646Z,16.90
2022-10-20T05:41:12.812Z,16.90
2022-10-20T05:43:17.198Z,16.80
2022-10-20T05:45:19.101Z,16.90
2022-10-20T05:47:20.746Z,16.90
2022-10-20T05:49:23.441Z,16.90
2022-10-20T05:51:26.538Z,16.80
2022-10-20T05:53:28.166Z,16.80
2022-10-20T05:55:29.848Z,16.80
2022-10-20T05:57:31.491Z,16.80
2022-10-20T05:59:33.123Z,16.80
2022-10-20T06:01:50.236Z,16.70
2022-10-20T06:03:51.879Z,16.70
2022-10-20T06:05:57.057Z,16.70
2022-10-20T06:07:58.689Z,16.70
2022-10-20T06:10:00.337Z,16.70
2022-10-20T06:12:02.182Z,16.70
2022-10-20T06:14:03.857Z,16.70
2022-10-20T06:16:06.569Z,16.70
2022-10-20T06:18:08.175Z,16.70
2022-10-20T06:20:10.004Z,16.70
2022-10-20T06:22:11.686Z,16.70
2022-10-20T06:24:13.555Z,16.70
2022-10-20T06:26:19.444Z,16.60
2022-10-20T06:28:21.229Z,16.70
2022-10-20T06:30:22.849Z,16.70
2022-10-20T06:32:24.461Z,16.60
2022-10-20T06:34:26.095Z,16.60
2022-10-20T06:36:28.105Z,16.60
2022-10-20T06:38:29.748Z,16.60
2022-10-20T06:40:31.398Z,16.60
2022-10-20T06:42:33.044Z,16.60
2022-10-20T06:44:35.287Z,16.60
2022-10-20T06:46:37.080Z,16.60
2022-10-20T06:48:47.431Z,16.50
2022-10-20T06:50:49.142Z,16.50
2022-10-20T06:52:50.805Z,16.50
2022-10-20T06:54:52.442Z,16.60
2022-10-20T06:56:54.102Z,16.60
2022-10-20T06:58:56.455Z,16.60
2022-10-20T07:01:10.200Z,16.60
2022-10-20T07:03:12.920Z,16.60
2022-10-20T07:05:14.591Z,16.60
2022-10-20T07:07:16.228Z,16.60
2022-10-20T07:09:19.123Z,16.70
2022-10-20T07:11:21.623Z,16.70
2022-10-20T07:13:23.277Z,16.70
2022-10-20T07:15:24.920Z,16.70
2022-10-20T07:17:26.543Z,16.80
2022-10-20T07:19:28.330Z,16.70
2022-10-20T07:21:34.988Z,16.80
2022-10-20T07:23:39.024Z,16.80
2022-10-20T07:25:40.697Z,16.80
2022-10-20T07:27:46.613Z,16.80
2022-10-20T07:29:48.739Z,16.90
2022-10-20T07:31:50.387Z,16.90
2022-10-20T07:34:06.815Z,16.90
2022-10-20T07:36:24.240Z,17.00
2022-10-20T07:38:26.144Z,17.00
2022-10-20T07:40:27.775Z,17.00
2022-10-20T07:42:29.467Z,17.00
2022-10-20T07:44:31.153Z,17.00
2022-10-20T07:46:32.803Z,17.00
2022-10-20T07:48:34.890Z,17.00
2022-10-20T07:50:37.704Z,17.10
2022-10-20T07:52:39.557Z,17.10
2022-10-20T07:54:41.234Z,17.10
2022-10-20T07:56:43.236Z,17.10
2022-10-20T07:58:45.185Z,17.20
2022-10-20T08:00:46.818Z,17.20
2022-10-20T08:02:48.485Z,17.20
2022-10-20T08:04:50.604Z,17.20
2022-10-20T08:06:52.307Z,17.30
2022-10-20T08:08:54.224Z,17.30
2022-10-20T08:10:57.968Z,17.30
2022-10-20T08:12:59.627Z,17.30
2022-10-20T08:15:01.340Z,17.30
2022-10-20T08:17:03.760Z,17.30
2022-10-20T08:19:18.052Z,17.30
2022-10-20T08:21:20.563Z,17.30
2022-10-20T08:23:22.191Z,17.40
2022-10-20T08:25:24.202Z,17.40
2022-10-20T08:27:25.918Z,17.40
2022-10-20T08:29:27.676Z,17.50
2022-10-20T08:31:29.397Z,17.50
2022-10-20T08:33:31.090Z,17.50
2022-10-20T08:35:32.797Z,17.50
2022-10-20T08:37:36.549Z,17.50
2022-10-20T08:39:38.368Z,17.50
2022-10-20T08:42:06.805Z,17.60
2022-10-20T08:44:06.156Z,17.60
2022-10-20T08:46:12.550Z,17.60
2022-10-20T08:48:19.457Z,17.70
2022-10-20T08:50:22.139Z,17.70
2022-10-20T08:52:25.247Z,17.70
2022-10-20T08:54:26.964Z,17.70
2022-10-20T08:56:29.590Z,17.80
2022-10-20T08:58:31.242Z,17.80
2022-10-20T09:00:35.743Z,17.90
2022-10-20T09:02:37.416Z,17.90
2022-10-20T09:06:46.944Z,17.90
2022-10-20T09:08:49.203Z,18.00
2022-10-20T09:10:52.531Z,18.00
2022-10-20T09:12:54.632Z,18.00
2022-10-20T09:14:57.410Z,18.10
2022-10-20T09:17:00.702Z,18.10
2022-10-20T09:19:02.806Z,18.10
2022-10-20T09:21:16.320Z,18.20
2022-10-20T09:23:39.508Z,18.20
2022-10-20T09:25:42.062Z,18.20
2022-10-20T09:27:44.298Z,18.30
2022-10-20T09:29:45.942Z,18.30
2022-10-20T09:31:52.376Z,18.40
2022-10-20T09:33:54.066Z,18.40
2022-10-20T09:36:02.436Z,18.40
2022-10-20T09:38:10.064Z,18.50
2022-10-20T09:40:15.435Z,18.50
2022-10-20T09:42:22.594Z,18.50
2022-10-20T09:44:25.793Z,18.60
2022-10-20T09:46:29.572Z,18.60
2022-10-20T09:48:35.685Z,18.60
2022-10-20T09:50:38.511Z,18.60
2022-10-20T09:52:47.512Z,18.60
2022-10-20T09:54:50.667Z,18.60
2022-10-20T09:56:53.049Z,18.60
2022-10-20T09:58:55.536Z,18.60
2022-10-20T10:01:02.155Z,18.60
2022-10-20T10:03:07.852Z,18.60
2022-10-20T10:05:21.800Z,18.70
2022-10-20T10:07:26.414Z,18.70
2022-10-20T10:09:28.095Z,18.70
2022-10-20T10:11:33.172Z,18.70
2022-10-20T10:13:40.940Z,18.70
2022-10-20T10:15:42.612Z,18.70
2022-10-20T10:17:44.507Z,18.80
2022-10-20T10:19:51.357Z,18.80
2022-10-20T10:22:00.062Z,18.80
2022-10-20T10:24:03.408Z,18.80
2022-10-20T10:26:25.006Z,18.90
2022-10-20T10:30:30.713Z,18.90
2022-10-20T10:32:32.363Z,19.00
2022-10-20T10:34:34.000Z,19.00
2022-10-20T10:36:36.523Z,19.10
2022-10-20T10:38:38.163Z,19.10
2022-10-20T10:40:45.285Z,19.10
2022-10-20T10:42:55.905Z,19.20
2022-10-20T10:45:02.728Z,19.30
2022-10-20T10:47:04.515Z,19.30
2022-10-20T10:49:18.060Z,19.30
2022-10-20T10:51:31.200Z,19.40
2022-10-20T10:53:51.464Z,19.50
2022-10-20T10:56:13.390Z,19.50
2022-10-20T10:58:33.692Z,19.50
2022-10-20T11:00:53.133Z,19.60
2022-10-20T11:03:00.713Z,19.60
2022-10-20T11:05:20.513Z,19.70
2022-10-20T11:07:31.825Z,19.60
2022-10-20T11:09:42.066Z,19.70
2022-10-20T11:11:52.080Z,19.70
2022-10-20T11:13:56.796Z,19.80
2022-10-20T11:16:04.456Z,19.80
2022-10-20T11:18:32.409Z,19.90
2022-10-20T11:20:40.284Z,19.90
2022-10-20T11:23:11.064Z,19.90
2022-10-20T11:25:31.442Z,19.90
2022-10-20T11:27:34.872Z,20.00
2022-10-20T11:29:45.106Z,20.00
2022-10-20T11:31:54.606Z,20.00
2022-10-20T11:34:18.443Z,20.00
2022-10-20T11:36:21.936Z,20.00
2022-10-20T11:38:23.754Z,20.00
2022-10-20T11:40:30.558Z,20.00
2022-10-20T11:42:37.244Z,20.00
2022-10-20T11:44:42.062Z,20.00
2022-10-20T11:46:49.117Z,20.00
2022-10-20T11:48:51.588Z,20.00
2022-10-20T11:51:08.770Z,20.00
2022-10-20T11:53:31.377Z,20.00
2022-10-20T11:55:51.644Z,20.00
2022-10-20T11:58:08.093Z,20.00
2022-10-20T12:00:09.813Z,20.00
2022-10-20T12:02:13.751Z,20.00
2022-10-20T12:04:18.239Z,20.00
2022-10-20T12:06:25.859Z,20.00
2022-10-20T12:08:37.441Z,20.00
2022-10-20T12:10:39.150Z,20.00
2022-10-20T12:12:46.904Z,19.90
2022-10-20T12:14:52.742Z,19.90
2022-10-20T12:16:54.622Z,19.90
2022-10-20T12:19:06.352Z,19.90
2022-10-20T12:21:10.030Z,19.90
2022-10-20T12:23:31.701Z,19.90
2022-10-20T12:25:35.258Z,19.90
2022-10-20T12:27:36.938Z,19.80
2022-10-20T12:29:38.580Z,19.80
2022-10-20T12:31:59.062Z,19.90
2022-10-20T12:34:01.380Z,19.80
2022-10-20T12:36:18.002Z,19.80
2022-10-20T12:38:22.113Z,19.80
2022-10-20T12:40:26.026Z,19.80
2022-10-20T12:42:31.652Z,19.80
2022-10-20T12:44:41.057Z,19.80
2022-10-20T12:46:51.380Z,19.80
2022-10-20T12:48:58.541Z,19.80
2022-10-20T12:51:06.257Z,19.80
2022-10-20T12:53:19.383Z,19.80
2022-10-20T12:55:25.454Z,19.80
2022-10-20T12:57:27.146Z,19.80
2022-10-20T12:59:28.804Z,19.80
2022-10-20T13:01:30.465Z,19.80
2022-10-20T13:03:32.163Z,19.80
2022-10-20T13:05:40.850Z,19.80
2022-10-20T13:07:48.382Z,19.80
2022-10-20T13:09:54.565Z,19.80
2022-10-20T13:11:57.950Z,19.70
2022-10-20T13:14:05.571Z,19.80
2022-10-20T13:16:14.176Z,19.70
2022-10-20T13:18:19.926Z,19.80
2022-10-20T13:20:27.080Z,19.70
2022-10-20T13:22:49.758Z,19.70
2022-10-20T13:24:53.605Z,19.70
2022-10-20T13:27:01.852Z,19.70
2022-10-20T13:29:10.330Z,19.70
2022-10-20T13:31:18.199Z,19.70
2022-10-20T13:33:34.269Z,19.70
2022-10-20T13:35:57.787Z,19.70
2022-10-20T13:38:04.952Z,19.70
2022-10-20T13:40:11.264Z,19.70
2022-10-20T13:42:31.668Z,19.70
2022-10-20T13:44:47.896Z,19.70
2022-10-20T13:46:58.670Z,19.70
2022-10-20T13:49:09.599Z,19.70
2022-10-20T13:51:14.942Z,19.70
2022-10-20T13:53:22.238Z,19.70
2022-10-20T13:55:26.376Z,19.70
2022-10-20T13:57:29.736Z,19.70
2022-10-20T13:59:31.862Z,19.70
2022-10-20T14:01:35.087Z,19.70
2022-10-20T14:03:41.265Z,19.70
2022-10-20T14:05:42.900Z,19.70
2022-10-20T14:07:44.803Z,19.70
2022-10-20T14:09:56.298Z,19.70
2022-10-20T14:12:04.006Z,19.70
2022-10-20T14:14:05.749Z,19.70
2022-10-20T14:16:16.602Z,19.70
2022-10-20T14:18:20.912Z,19.70
2022-10-20T14:20:23.095Z,19.70
2022-10-20T14:22:25.411Z,19.70
2022-10-20T14:24:30.822Z,19.70
2022-10-20T14:26:32.995Z,19.70
2022-10-20T14:28:35.562Z,19.70
2022-10-20T14:30:40.885Z,19.70
2022-10-20T14:32:43.946Z,19.70
2022-10-20T14:34:56.909Z,19.70
2022-10-20T14:36:58.659Z,19.70
2022-10-20T14:39:01.157Z,19.70
2022-10-20T14:41:03.849Z,19.70
2022-10-20T14:43:15.543Z,19.70
2022-10-20T14:45:21.783Z,19.70
2022-10-20T14:47:24.111Z,19.70
2022-10-20T14:49:27.913Z,19.70
2022-10-20T14:51:29.753Z,19.70
2022-10-20T14:53:34.769Z,19.70
2022-10-20T14:55:39.691Z,19.60
2022-10-20T14:57:44.207Z,19.70
2022-10-20T14:59:52.427Z,19.70
2022-10-20T15:02:11.309Z,19.60
2022-10-20T15:04:22.976Z,19.70
2022-10-20T15:06:24.696Z,19.70
2022-10-20T15:08:29.133Z,19.70
2022-10-20T15:10:30.855Z,19.70
2022-10-20T15:12:38.233Z,19.70
2022-10-20T15:14:41.678Z,19.60
2022-10-20T15:16:47.816Z,19.70
2022-10-20T15:18:49.665Z,19.60
2022-10-20T15:20:52.405Z,19.60
2022-10-20T15:22:55.419Z,19.70
2022-10-20T15:24:57.262Z,19.60
2022-10-20T15:26:59.309Z,19.60
2022-10-20T15:29:01.040Z,19.60
2022-10-20T15:31:04.592Z,19.60
2022-10-20T15:33:06.268Z,19.60
2022-10-20T15:35:11.565Z,19.60
2022-10-20T15:37:13.210Z,19.60
2022-10-20T15:39:15.060Z,19.60
2022-10-20T15:41:21.339Z,19.60
2022-10-20T15:43:23.134Z,19.60
2022-10-20T15:45:25.288Z,19.60
2022-10-20T15:47:27.133Z,19.60
2022-10-20T15:49:28.839Z,19.60
2022-10-20T15:51:31.611Z,19.60
2022-10-20T15:53:33.254Z,19.60
2022-10-20T15:55:37.346Z,19.60
2022-10-20T15:57:39.320Z,19.60
2022-10-20T15:59:41.164Z,19.60
2022-10-20T16:01:42.832Z,19.60
2022-10-20T16:03:45.306Z,19.60
2022-10-20T16:05:47.061Z,19.50
2022-10-20T16:07:50.487Z,19.60
2022-10-20T16:09:52.188Z,19.50
2022-10-20T16:11:53.926Z,19.50
2022-10-20T16:13:55.664Z,19.50
2022-10-20T16:15:57.347Z,19.50
2022-10-20T16:17:59.117Z,19.50
2022-10-20T16:20:00.824Z,19.50
2022-10-20T16:22:02.596Z,19.50
2022-10-20T16:24:04.994Z,19.50
2022-10-20T16:26:08.056Z,19.50
2022-10-20T16:28:09.874Z,19.50
2022-10-20T16:30:11.617Z,19.50
2022-10-20T16:32:13.388Z,19.50
2022-10-20T16:34:15.081Z,19.50
2022-10-20T16:36:17.842Z,19.50
2022-10-20T16:38:19.508Z,19.40
2022-10-20T16:40:21.270Z,19.40
2022-10-20T16:42:22.927Z,19.40
2022-10-20T16:44:24.678Z,19.40
2022-10-20T16:46:26.404Z,19.40
2022-10-20T16:48:30.469Z,19.40
2022-10-20T16:50:32.148Z,19.40
2022-10-20T16:52:33.832Z,19.40
2022-10-20T16:54:36.304Z,19.30
2022-10-20T16:56:38.123Z,19.40
2022-10-20T16:58:39.808Z,19.30
2022-10-20T17:00:43.125Z,19.30
2022-10-20T17:02:47.375Z,19.30
2022-10-20T17:04:49.621Z,19.40
2022-10-20T17:06:51.311Z,19.30
2022-10-20T17:08:53.732Z,19.30
2022-10-20T17:10:59.744Z,19.30
2022-10-20T17:13:01.469Z,19.30
2022-10-20T17:15:03.243Z,19.30
2022-10-20T17:17:04.945Z,19.30
2022-10-20T17:19:06.619Z,19.30
2022-10-20T17:21:08.370Z,19.20
2022-10-20T17:23:10.067Z,19.20
2022-10-20T17:25:11.691Z,19.20
2022-10-20T17:27:13.410Z,19.20
2022-10-20T17:29:15.087Z,19.20
2022-10-20T17:31:17.724Z,19.20
2022-10-20T17:33:19.439Z,19.20
2022-10-20T17:35:21.188Z,19.20
2022-10-20T17:37:22.848Z,19.20
2022-10-20T17:39:24.730Z,19.20
2022-10-20T17:41:26.498Z,19.10
2022-10-20T17:43:28.231Z,19.20
2022-10-20T17:45:31.233Z,19.20
2022-10-20T17:47:34.543Z,19.20
2022-10-20T17:49:36.167Z,19.20
2022-10-20T17:51:38.050Z,19.20
2022-10-20T17:53:41.678Z,19.20
2022-10-20T17:55:43.369Z,19.20
2022-10-20T17:57:45.065Z,19.20
2022-10-20T17:59:52.978Z,19.20
2022-10-20T18:01:56.404Z,19.20
2022-10-20T18:04:02.922Z,19.20
2022-10-20T18:06:18.395Z,19.10
2022-10-20T18:08:20.328Z,19.10
2022-10-20T18:12:28.608Z,19.10
2022-10-20T18:14:30.291Z,19.10
2022-10-20T18:16:33.290Z,19.10
2022-10-20T18:18:35.443Z,19.10
2022-10-20T18:20:37.129Z,19.10
2022-10-20T18:22:39.245Z,19.10
2022-10-20T18:24:41.250Z,19.10
2022-10-20T18:26:43.381Z,19.10
2022-10-20T18:28:48.227Z,19.10
2022-10-20T18:30:50.438Z,19.10
2022-10-20T18:32:52.072Z,19.00
2022-10-20T18:34:53.858Z,19.10
2022-10-20T18:36:58.805Z,19.00
2022-10-20T18:39:00.882Z,19.00
2022-10-20T18:41:06.197Z,19.00
2022-10-20T18:43:07.929Z,19.00
2022-10-20T18:45:09.586Z,19.00
2022-10-20T18:47:11.629Z,19.00
2022-10-20T18:49:14.481Z,19.00
2022-10-20T18:51:17.085Z,18.90
2022-10-20T18:53:18.879Z,19.00
2022-10-20T18:55:20.662Z,18.90
2022-10-20T18:57:22.374Z,18.90
2022-10-20T18:59:24.162Z,18.90
2022-10-20T19:01:30.154Z,18.90
2022-10-20T19:03:33.251Z,18.90
2022-10-20T19:05:37.481Z,18.90
2022-10-20T19:07:39.584Z,18.90
2022-10-20T19:09:41.544Z,18.90
2022-10-20T19:11:43.998Z,18.90
2022-10-20T19:13:45.760Z,18.90
2022-10-20T19:15:47.495Z,18.90
2022-10-20T19:17:49.196Z,18.90
2022-10-20T19:19:52.931Z,18.90
2022-10-20T19:21:54.626Z,18.90
2022-10-20T19:24:01.656Z,18.90
2022-10-20T19:26:06.269Z,18.90
2022-10-20T19:28:10.786Z,18.90
2022-10-20T19:30:12.717Z,18.90
2022-10-20T19:32:14.517Z,18.90
2022-10-20T19:34:16.224Z,18.90
2022-10-20T19:36:18.435Z,18.90
2022-10-20T19:38:20.451Z,18.90
2022-10-20T19:40:23.908Z,18.90
2022-10-20T19:42:26.716Z,18.90
2022-10-20T19:44:28.876Z,18.90
2022-10-20T19:46:30.952Z,18.90
2022-10-20T19:48:32.727Z,18.90
2022-10-20T19:50:35.052Z,18.90
2022-10-20T19:52:36.968Z,18.90
2022-10-20T19:54:38.834Z,18.90
2022-10-20T19:56:41.023Z,18.80
2022-10-20T19:58:45.774Z,18.80
2022-10-20T20:00:52.687Z,18.80
2022-10-20T20:02:54.414Z,18.80
2022-10-20T20:04:56.129Z,18.80
2022-10-20T20:07:01.965Z,18.80
2022-10-20T20:09:06.627Z,18.80
2022-10-20T20:11:08.431Z,18.80
2022-10-20T20:13:10.214Z,18.80
2022-10-20T20:15:11.865Z,18.80
2022-10-20T20:17:13.559Z,18.90
2022-10-20T20:19:16.067Z,18.90
2022-10-20T20:21:18.191Z,18.90
2022-10-20T20:23:29.810Z,18.90
2022-10-20T20:25:36.770Z,18.90
2022-10-20T20:27:38.829Z,18.90
2022-10-20T20:29:40.656Z,18.90
2022-10-20T20:31:42.382Z,18.90
2022-10-20T20:33:44.056Z,18.90
2022-10-20T20:35:45.673Z,18.90
2022-10-20T20:37:47.438Z,18.90
2022-10-20T20:39:49.199Z,18.90
2022-10-20T20:41:50.859Z,18.90
2022-10-20T20:43:52.619Z,18.90
2022-10-20T20:45:54.508Z,18.90
2022-10-20T20:47:56.176Z,18.90
2022-10-20T20:49:57.929Z,18.90
2022-10-20T20:51:59.630Z,18.90
2022-10-20T20:54:01.697Z,18.90
2022-10-20T20:56:04.792Z,18.90
2022-10-20T20:58:06.475Z,18.90
2022-10-20T21:00:08.670Z,18.80
2022-10-20T21:02:10.515Z,18.90
2022-10-20T21:04:12.775Z,18.80
2022-10-20T21:06:16.399Z,18.90
2022-10-20T21:08:18.026Z,18.90
2022-10-20T21:10:19.772Z,18.90
2022-10-20T21:12:21.483Z,18.90
2022-10-20T21:14:23.189Z,18.90
2022-10-20T21:16:26.556Z,18.90
2022-10-20T21:18:28.211Z,18.90
2022-10-20T21:20:29.873Z,18.90
2022-10-20T21:22:31.516Z,19.00
2022-10-20T21:24:33.283Z,18.90
2022-10-20T21:26:34.950Z,18.90
2022-10-20T21:28:36.921Z,18.90
2022-10-20T21:30:39.784Z,18.90
2022-10-20T21:32:41.511Z,18.90
2022-10-20T21:34:43.163Z,18.90
2022-10-20T21:36:44.933Z,18.90
2022-10-20T21:38:47.306Z,19.00
2022-10-20T21:40:48.920Z,18.90
2022-10-20T21:42:50.557Z,19.00
2022-10-20T21:44:52.233Z,18.90
2022-10-20T21:46:53.887Z,18.90
2022-10-20T21:48:59.837Z,18.90
2022-10-20T21:51:08.386Z,18.90
2022-10-20T21:53:10.088Z,18.90
2022-10-20T21:55:11.724Z,18.90
2022-10-20T21:57:14.211Z,18.90
2022-10-20T21:59:17.929Z,19.00
2022-10-20T22:01:21.272Z,18.90
2022-10-20T22:03:23.878Z,18.90
2022-10-20T22:05:25.715Z,18.90
2022-10-20T22:07:28.054Z,18.90
2022-10-20T22:09:29.765Z,18.90
2022-10-20T22:11:32.929Z,18.90
2022-10-20T22:13:34.612Z,18.90
2022-10-20T22:15:36.921Z,18.90
2022-10-20T22:17:39.118Z,19.00
2022-10-20T22:19:41.129Z,18.90
2022-10-20T22:21:44.166Z,19.00
2022-10-20T22:23:45.896Z,19.00
2022-10-20T22:25:50.819Z,19.00
2022-10-20T22:27:52.536Z,19.00
2022-10-20T22:29:57.363Z,19.00
2022-10-20T22:31:59.253Z,19.00
2022-10-20T22:34:00.892Z,19.00
2022-10-20T22:36:03.466Z,19.10
2022-10-20T22:38:05.108Z,19.00
2022-10-20T22:40:07.152Z,19.00
2022-10-20T22:42:09.014Z,19.00
2022-10-20T22:44:10.946Z,19.00
2022-10-20T22:46:12.762Z,19.00
2022-10-20T22:48:14.399Z,19.10
2022-10-20T22:50:16.073Z,19.00
2022-10-20T22:52:17.710Z,19.00
2022-10-20T22:54:19.411Z,19.00
2022-10-20T22:56:22.197Z,19.10
2022-10-20T22:58:23.983Z,19.10
2022-10-20T23:00:25.818Z,19.10
2022-10-20T23:02:27.495Z,19.10
2022-10-20T23:04:29.296Z,19.10
2022-10-20T23:06:30.980Z,19.10
2022-10-20T23:08:36.784Z,19.10
2022-10-20T23:10:38.472Z,19.10
2022-10-20T23:12:40.607Z,19.10
2022-10-20T23:14:42.380Z,19.10
2022-10-20T23:16:44.013Z,19.10
2022-10-20T23:18:45.766Z,19.10
2022-10-20T23:20:47.401Z,19.10
2022-10-20T23:22:49.147Z,19.00
2022-10-20T23:24:50.831Z,19.10
2022-10-20T23:26:52.471Z,19.10
2022-10-20T23:28:54.170Z,19.10
2022-10-20T23:31:05.850Z,19.10
2022-10-20T23:33:07.471Z,19.10
2022-10-20T23:35:09.223Z,19.10
2022-10-20T23:37:10.827Z,19.10
2022-10-20T23:39:12.512Z,19.10
2022-10-20T23:41:14.273Z,19.10
2022-10-20T23:43:15.906Z,19.10
2022-10-20T23:45:17.680Z,19.10
2022-10-20T23:47:19.298Z,19.20
2022-10-20T23:49:20.899Z,19.20
2022-10-20T23:51:22.593Z,19.20
2022-10-20T23:53:24.326Z,19.20
2022-10-20T23:55:25.934Z,19.20
2022-10-20T23:57:27.542Z,19.20
2022-10-20T23:59:29.202Z,19.20
